createdAt,value
2022-12-28T00:01:32.854Z,69.92
2022-12-28T00:04:03.381Z,70.04
2022-12-28T00:06:32.398Z,70.16
2022-12-28T00:09:01.287Z,70.13
2022-12-28T00:11:30.936Z,70.18
2022-12-28T00:14:00.887Z,70.23
2022-12-28T00:16:35.289Z,70.32
2022-12-28T00:19:07.339Z,70.45
2022-12-28T00:21:34.836Z,70.36
2022-12-28T00:24:02.582Z,70.25
2022-12-28T00:26:33.299Z,70.37
2022-12-28T00:29:05.342Z,70.72
2022-12-28T00:31:32.099Z,70.52
2022-12-28T00:33:59.824Z,70.62
2022-12-28T00:37:08.386Z,70.81
2022-12-28T00:38:57.300Z,70.76
2022-12-28T00:41:25.426Z,70.43
2022-12-28T00:43:53.122Z,70.34
2022-12-28T00:46:20.840Z,70.59
2022-12-28T00:48:48.231Z,70.58
2022-12-28T00:51:19.362Z,70.41
2022-12-28T00:53:47.206Z,70.24
2022-12-28T00:56:18.877Z,70.26
2022-12-28T00:58:49.138Z,70.26
2022-12-28T01:01:20.962Z,70.30
2022-12-28T01:03:49.066Z,70.49
2022-12-28T01:06:20.390Z,70.51
2022-12-28T01:08:48.263Z,70.42
2022-12-28T01:11:25.755Z,70.42
2022-12-28T01:13:57.620Z,70.45
2022-12-28T01:16:33.229Z,70.57
2022-12-28T01:19:04.972Z,70.66
2022-12-28T01:21:34.729Z,70.53
2022-12-28T01:24:07.299Z,70.60
2022-12-28T01:26:35.249Z,70.56
2022-12-28T01:29:03.414Z,70.63
2022-12-28T01:31:33.342Z,70.42
2022-12-28T01:34:01.915Z,70.36
2022-12-28T01:36:32.369Z,70.17
2022-12-28T01:39:03.838Z,70.11
2022-12-28T01:41:37.103Z,70.16
2022-12-28T01:44:10.275Z,70.05
2022-12-28T01:46:54.975Z,70.08
2022-12-28T01:49:45.937Z,70.03
2022-12-28T01:52:28.241Z,69.96
2022-12-28T01:55:19.306Z,70.10
2022-12-28T01:57:52.386Z,69.98
2022-12-28T02:00:20.359Z,69.87
2022-12-28T02:02:59.065Z,69.57
2022-12-28T02:05:34.493Z,69.62
2022-12-28T02:08:07.196Z,69.69
2022-12-28T02:10:42.805Z,69.73
2022-12-28T02:13:07.416Z,69.61
2022-12-28T02:15:35.765Z,69.55
2022-12-28T02:18:03.895Z,69.78
2022-12-28T02:20:43.971Z,70.08
2022-12-28T02:24:06.165Z,69.99
2022-12-28T02:27:14.623Z,70.23
2022-12-28T02:30:11.043Z,70.39
2022-12-28T02:33:04.773Z,70.39
2022-12-28T02:36:02.634Z,70.35
2022-12-28T02:38:49.343Z,70.46
2022-12-28T02:41:23.988Z,70.44
2022-12-28T02:43:54.128Z,70.22
2022-12-28T02:46:49.593Z,70.26
2022-12-28T02:49:46.227Z,70.37
2022-12-28T02:52:39.026Z,70.37
2022-12-28T02:56:08.402Z,70.54
2022-12-28T02:59:01.084Z,70.63
2022-12-28T03:01:54.175Z,70.68
2022-12-28T03:04:50.208Z,70.66
2022-12-28T03:07:45.411Z,70.78
2022-12-28T03:10:45.493Z,70.89
2022-12-28T03:13:44.496Z,70.79
2022-12-28T03:16:25.151Z,70.94
2022-12-28T03:19:22.085Z,70.86
2022-12-28T03:22:13.117Z,70.94
2022-12-28T03:25:04.200Z,71.17
2022-12-28T03:27:52.776Z,71.26
2022-12-28T03:30:41.218Z,71.31
2022-12-28T03:33:13.330Z,71.30
2022-12-28T03:36:07.111Z,71.19
2022-12-28T03:39:13.803Z,71.13
2022-12-28T03:42:41.662Z,71.10
2022-12-28T03:45:45.669Z,70.90
2022-12-28T03:48:11.893Z,70.51
2022-12-28T03:50:50.759Z,70.45
2022-12-28T03:53:36.038Z,70.40
2022-12-28T03:56:16.575Z,70.37
2022-12-28T03:58:53.881Z,70.31
2022-12-28T04:01:32.935Z,70.33
2022-12-28T04:04:04.685Z,70.34
2022-12-28T04:06:39.754Z,70.41
2022-12-28T04:09:09.250Z,70.59
2022-12-28T04:11:42.328Z,70.64
2022-12-28T04:14:13.207Z,70.60
2022-12-28T04:16:43.176Z,70.49
2022-12-28T04:19:12.866Z,70.47
2022-12-28T04:21:40.706Z,70.60
2022-12-28T04:24:08.823Z,70.87
2022-12-28T04:26:37.371Z,70.80
2022-12-28T04:29:05.161Z,70.83
2022-12-28T04:31:40.464Z,70.94
2022-12-28T04:34:10.036Z,70.99
2022-12-28T04:36:39.954Z,70.90
2022-12-28T04:39:09.878Z,70.90
2022-12-28T04:41:37.562Z,71.00
2022-12-28T04:44:05.268Z,70.99
2022-12-28T04:46:33.042Z,71.07
2022-12-28T04:49:01.130Z,71.31
2022-12-28T04:51:29.657Z,71.32
2022-12-28T04:53:58.160Z,71.30
2022-12-28T04:56:27.519Z,71.33
2022-12-28T04:58:57.940Z,71.24
2022-12-28T05:01:26.223Z,71.29
2022-12-28T05:03:57.374Z,71.09
2022-12-28T05:06:26.780Z,70.98
2022-12-28T05:08:56.796Z,71.07
2022-12-28T05:11:27.856Z,71.14
2022-12-28T05:13:56.843Z,71.03
2022-12-28T05:16:27.295Z,71.04
2022-12-28T05:18:57.009Z,71.10
2022-12-28T05:21:27.805Z,70.92
2022-12-28T05:23:56.022Z,70.89
2022-12-28T05:26:28.187Z,70.93
2022-12-28T05:28:56.752Z,70.99
2022-12-28T05:31:24.989Z,71.17
2022-12-28T05:33:54.546Z,71.17
2022-12-28T05:36:27.468Z,71.16
2022-12-28T05:38:56.366Z,71.09
2022-12-28T05:41:27.783Z,71.37
2022-12-28T05:43:57.553Z,71.49
2022-12-28T05:46:29.468Z,71.45
2022-12-28T05:48:57.625Z,71.34
2022-12-28T05:51:29.024Z,71.37
2022-12-28T05:53:59.780Z,71.29
2022-12-28T05:56:29.757Z,71.32
2022-12-28T05:59:01.918Z,71.23
2022-12-28T06:01:34.039Z,70.80
2022-12-28T06:04:05.276Z,70.51
2022-12-28T06:06:34.730Z,70.46
2022-12-28T06:09:03.495Z,70.51
2022-12-28T06:11:31.656Z,70.53
2022-12-28T06:14:00.180Z,70.74
2022-12-28T06:16:31.030Z,70.82
2022-12-28T06:18:59.453Z,70.56
2022-12-28T06:21:32.395Z,70.20
2022-12-28T06:24:02.156Z,70.20
2022-12-28T06:26:35.928Z,70.24
2022-12-28T06:29:04.645Z,70.19
2022-12-28T06:31:38.756Z,70.15
2022-12-28T06:34:09.603Z,70.32
2022-12-28T06:36:43.454Z,70.15
2022-12-28T06:39:14.176Z,70.30
2022-12-28T06:41:42.738Z,70.35
2022-12-28T06:44:13.259Z,70.43
2022-12-28T06:46:41.436Z,70.44
2022-12-28T06:49:09.051Z,70.63
2022-12-28T06:51:39.918Z,70.87
2022-12-28T06:54:09.376Z,70.93
2022-12-28T06:56:38.069Z,70.88
2022-12-28T06:59:06.010Z,70.90
2022-12-28T07:01:39.832Z,70.93
2022-12-28T07:04:10.259Z,71.05
2022-12-28T07:06:42.280Z,71.15
2022-12-28T07:09:14.024Z,71.24
2022-12-28T07:11:42.466Z,71.31
2022-12-28T07:14:10.486Z,71.53
2022-12-28T07:19:05.043Z,71.75
2022-12-28T07:21:37.137Z,71.82
2022-12-28T07:24:06.078Z,71.97
2022-12-28T07:26:36.693Z,71.98
2022-12-28T07:29:06.698Z,72.00
2022-12-28T07:31:44.197Z,72.03
2022-12-28T07:34:07.588Z,72.03
2022-12-28T07:36:35.069Z,72.07
2022-12-28T07:39:02.757Z,71.95
2022-12-28T07:41:33.680Z,71.89
2022-12-28T07:44:01.939Z,72.02
2022-12-28T07:46:33.411Z,72.08
2022-12-28T07:49:01.673Z,72.08
2022-12-28T07:51:34.298Z,72.04
2022-12-28T07:54:03.102Z,72.07
2022-12-28T07:59:05.892Z,71.78
2022-12-28T08:01:36.128Z,71.83
2022-12-28T08:04:11.083Z,71.61
2022-12-28T08:06:41.993Z,71.43
2022-12-28T08:09:12.736Z,71.22
2022-12-28T08:11:43.811Z,71.24
2022-12-28T08:14:12.433Z,70.72
2022-12-28T08:16:42.449Z,70.52
2022-12-28T08:19:11.580Z,70.53
2022-12-28T08:21:43.103Z,70.40
2022-12-28T08:24:18.095Z,70.41
2022-12-28T08:26:47.132Z,70.52
2022-12-28T08:29:18.798Z,70.66
2022-12-28T08:31:46.885Z,70.43
2022-12-28T08:34:19.411Z,70.29
2022-12-28T08:36:47.071Z,70.23
2022-12-28T08:39:15.022Z,69.98
2022-12-28T08:41:42.781Z,69.26
2022-12-28T08:44:10.425Z,69.29
2022-12-28T08:46:39.847Z,68.59
2022-12-28T08:49:07.744Z,68.91
2022-12-28T08:51:40.782Z,68.78
2022-12-28T08:54:10.678Z,68.78
2022-12-28T08:56:41.851Z,68.87
2022-12-28T08:59:13.623Z,68.85
2022-12-28T09:01:44.500Z,68.19
2022-12-28T09:04:20.648Z,68.66
2022-12-28T09:06:48.816Z,68.49
2022-12-28T09:09:19.289Z,68.51
2022-12-28T09:11:48.009Z,68.15
2022-12-28T09:14:22.719Z,67.16
2022-12-28T09:16:45.450Z,66.26
2022-12-28T09:19:15.250Z,65.67
2022-12-28T09:21:44.856Z,64.81
2022-12-28T09:24:13.653Z,64.13
2022-12-28T09:26:41.364Z,63.59
2022-12-28T09:29:13.127Z,63.42
2022-12-28T09:31:41.888Z,63.44
2022-12-28T09:36:44.458Z,60.99
2022-12-28T09:39:16.833Z,61.87
2022-12-28T09:41:57.870Z,62.62
2022-12-28T09:45:00.126Z,63.14
2022-12-28T09:47:45.445Z,63.00
2022-12-28T09:50:28.716Z,63.45
2022-12-28T09:53:17.114Z,63.31
2022-12-28T09:55:50.441Z,62.87
2022-12-28T09:58:17.988Z,62.06
2022-12-28T10:00:49.522Z,62.25
2022-12-28T10:03:27.410Z,61.85
2022-12-28T10:05:57.477Z,61.99
2022-12-28T10:08:27.448Z,62.74
2022-12-28T10:10:59.883Z,61.84
2022-12-28T10:16:05.949Z,62.48
2022-12-28T10:18:39.384Z,61.35
2022-12-28T10:21:05.448Z,61.29
2022-12-28T10:23:41.246Z,61.49
2022-12-28T10:26:07.192Z,61.21
2022-12-28T10:28:54.099Z,61.78
2022-12-28T10:31:37.625Z,62.25
2022-12-28T10:34:23.873Z,62.04
2022-12-28T10:36:54.288Z,62.31
2022-12-28T10:39:28.789Z,62.12
2022-12-28T10:41:58.668Z,61.94
2022-12-28T10:44:40.113Z,61.66
2022-12-28T10:47:17.759Z,61.67
2022-12-28T10:50:10.448Z,61.79
2022-12-28T10:52:21.405Z,61.63
2022-12-28T10:55:07.461Z,61.47
2022-12-28T10:57:28.935Z,60.05
2022-12-28T11:00:22.611Z,60.86
2022-12-28T11:02:50.300Z,61.39
2022-12-28T11:05:22.898Z,60.27
2022-12-28T11:07:55.832Z,58.18
2022-12-28T11:10:29.716Z,58.87
2022-12-28T11:13:00.644Z,59.49
2022-12-28T11:15:31.896Z,59.83
2022-12-28T11:18:04.480Z,60.45
2022-12-28T11:20:36.871Z,59.94
2022-12-28T11:23:08.858Z,58.10
2022-12-28T11:25:37.715Z,58.77
2022-12-28T11:28:09.739Z,58.99
2022-12-28T11:30:37.159Z,59.08
2022-12-28T11:33:07.876Z,58.85
2022-12-28T11:35:39.095Z,58.74
2022-12-28T11:38:09.948Z,58.75
2022-12-28T11:40:51.649Z,59.02
2022-12-28T11:43:38.732Z,59.20
2022-12-28T11:46:27.282Z,59.24
2022-12-28T11:49:01.462Z,58.87
2022-12-28T11:51:35.459Z,57.15
2022-12-28T11:54:08.711Z,57.32
2022-12-28T11:56:54.005Z,57.28
2022-12-28T11:59:31.462Z,57.42
2022-12-28T12:02:09.589Z,53.29
2022-12-28T12:04:44.385Z,53.76
2022-12-28T12:07:29.074Z,54.46
2022-12-28T12:10:30.921Z,55.28
2022-12-28T12:12:59.556Z,55.80
2022-12-28T12:15:35.691Z,56.05
2022-12-28T12:18:08.089Z,55.34
2022-12-28T12:20:58.809Z,54.66
2022-12-28T12:23:39.400Z,54.37
2022-12-28T12:26:21.638Z,54.14
2022-12-28T12:28:53.941Z,54.10
2022-12-28T12:31:33.196Z,53.62
2022-12-28T12:34:25.909Z,53.17
2022-12-28T12:37:40.166Z,53.17
2022-12-28T12:40:41.388Z,52.65
2022-12-28T12:43:38.363Z,51.98
2022-12-28T12:46:37.206Z,52.75
2022-12-28T12:49:43.379Z,53.04
2022-12-28T12:52:51.750Z,52.11
2022-12-28T12:55:48.489Z,51.50
2022-12-28T12:58:34.139Z,52.39
2022-12-28T13:01:50.117Z,53.02
2022-12-28T13:04:27.308Z,53.40
2022-12-28T13:06:59.039Z,52.75
2022-12-28T13:09:30.377Z,52.47
2022-12-28T13:11:59.633Z,52.54
2022-12-28T13:14:28.108Z,52.30
2022-12-28T13:16:58.464Z,52.38
2022-12-28T13:19:29.327Z,52.42
2022-12-28T13:21:58.600Z,52.03
2022-12-28T13:24:30.022Z,52.48
2022-12-28T13:26:59.828Z,52.62
2022-12-28T13:29:35.730Z,52.74
2022-12-28T13:32:03.589Z,52.59
2022-12-28T13:34:35.471Z,53.26
2022-12-28T13:37:16.186Z,53.13
2022-12-28T13:39:47.489Z,52.90
2022-12-28T13:42:19.903Z,52.99
2022-12-28T13:45:01.602Z,52.73
2022-12-28T13:47:40.305Z,52.85
2022-12-28T13:50:18.742Z,53.00
2022-12-28T13:53:06.769Z,52.99
2022-12-28T13:55:39.874Z,52.80
2022-12-28T13:58:18.643Z,52.71
2022-12-28T14:00:48.411Z,52.49
2022-12-28T14:03:18.223Z,52.78
2022-12-28T14:05:51.119Z,52.70
2022-12-28T14:08:18.761Z,52.73
2022-12-28T14:10:47.715Z,53.10
2022-12-28T14:13:18.181Z,53.20
2022-12-28T14:15:46.827Z,53.17
2022-12-28T14:18:18.289Z,52.79
2022-12-28T14:20:55.057Z,52.82
2022-12-28T14:23:32.647Z,52.86
2022-12-28T14:26:20.022Z,53.18
2022-12-28T14:28:52.427Z,53.55
2022-12-28T14:31:25.433Z,54.09
2022-12-28T14:34:03.123Z,54.58
2022-12-28T14:36:38.812Z,55.05
2022-12-28T14:39:07.365Z,55.46
2022-12-28T14:41:44.858Z,55.73
2022-12-28T14:44:20.925Z,56.13
2022-12-28T14:46:52.142Z,56.63
2022-12-28T14:49:35.635Z,56.92
2022-12-28T14:52:15.777Z,56.97
2022-12-28T14:54:51.071Z,57.66
2022-12-28T14:57:35.691Z,58.00
2022-12-28T15:00:17.814Z,58.39
2022-12-28T15:02:45.945Z,58.66
2022-12-28T15:05:38.586Z,59.09
2022-12-28T15:08:07.191Z,59.12
2022-12-28T15:10:42.282Z,59.14
2022-12-28T15:13:11.244Z,59.60
2022-12-28T15:15:38.885Z,59.78
2022-12-28T15:18:06.506Z,59.71
2022-12-28T15:20:37.623Z,60.01
2022-12-28T15:23:05.608Z,60.19
2022-12-28T15:25:35.139Z,60.55
2022-12-28T15:28:03.581Z,60.83
2022-12-28T15:30:31.043Z,61.06
2022-12-28T15:32:58.853Z,61.05
2022-12-28T15:35:26.626Z,61.10
2022-12-28T15:37:54.009Z,61.35
2022-12-28T15:40:21.760Z,61.42
2022-12-28T15:42:49.339Z,61.60
2022-12-28T15:45:17.552Z,61.59
2022-12-28T15:47:45.715Z,61.69
2022-12-28T15:50:13.466Z,62.00
2022-12-28T15:52:40.963Z,62.23
2022-12-28T15:55:09.093Z,62.46
2022-12-28T15:57:36.811Z,62.73
2022-12-28T16:00:05.649Z,62.93
2022-12-28T16:02:33.399Z,63.17
2022-12-28T16:05:01.743Z,63.31
2022-12-28T16:07:29.353Z,63.48
2022-12-28T16:09:56.819Z,63.84
2022-12-28T16:12:24.395Z,63.96
2022-12-28T16:14:51.868Z,63.92
2022-12-28T16:17:19.450Z,64.08
2022-12-28T16:19:47.232Z,64.16
2022-12-28T16:22:14.853Z,64.24
2022-12-28T16:24:42.590Z,64.42
2022-12-28T16:27:10.164Z,64.54
2022-12-28T16:29:37.995Z,64.75
2022-12-28T16:32:05.985Z,64.85
2022-12-28T16:34:33.903Z,65.03
2022-12-28T16:37:01.971Z,65.25
2022-12-28T16:39:30.450Z,65.38
2022-12-28T16:41:58.333Z,65.43
2022-12-28T16:44:27.366Z,65.61
2022-12-28T16:46:59.699Z,65.77
2022-12-28T16:49:29.071Z,65.77
2022-12-28T16:51:57.095Z,65.79
2022-12-28T16:54:26.912Z,65.79
2022-12-28T16:56:55.073Z,65.66
2022-12-28T16:59:26.507Z,65.55
2022-12-28T17:01:56.441Z,65.43
2022-12-28T17:04:24.485Z,65.37
2022-12-28T17:06:52.583Z,65.35
2022-12-28T17:09:20.996Z,65.41
2022-12-28T17:11:50.167Z,65.60
2022-12-28T17:14:35.933Z,65.65
2022-12-28T17:16:47.932Z,65.64
2022-12-28T17:19:16.452Z,65.76
2022-12-28T17:21:44.015Z,65.94
2022-12-28T17:24:11.710Z,65.98
2022-12-28T17:26:39.384Z,66.00
2022-12-28T17:29:06.966Z,66.04
2022-12-28T17:31:34.742Z,66.10
2022-12-28T17:34:03.180Z,66.14
2022-12-28T17:36:31.000Z,66.00
2022-12-28T17:38:58.547Z,65.95
2022-12-28T17:41:28.161Z,65.86
2022-12-28T17:43:59.419Z,66.02
2022-12-28T17:46:29.442Z,66.12
2022-12-28T17:48:59.765Z,66.12
2022-12-28T17:51:28.724Z,66.21
2022-12-28T17:53:57.150Z,66.29
2022-12-28T17:56:25.723Z,66.42
2022-12-28T17:58:58.512Z,66.58
2022-12-28T18:01:27.380Z,66.96
2022-12-28T18:03:56.906Z,67.08
2022-12-28T18:06:25.605Z,67.21
2022-12-28T18:08:53.183Z,67.22
2022-12-28T18:11:20.987Z,67.15
2022-12-28T18:13:48.718Z,67.08
2022-12-28T18:16:19.431Z,67.26
2022-12-28T18:18:47.803Z,67.42
2022-12-28T18:21:21.794Z,67.37
2022-12-28T18:23:50.623Z,67.27
2022-12-28T18:26:25.661Z,67.26
2022-12-28T18:28:55.950Z,67.17
2022-12-28T18:31:24.841Z,67.00
2022-12-28T18:33:52.719Z,66.94
2022-12-28T18:36:23.285Z,66.95
2022-12-28T18:38:50.801Z,66.86
2022-12-28T18:41:22.610Z,66.96
2022-12-28T18:43:53.234Z,66.79
2022-12-28T18:46:20.952Z,66.85
2022-12-28T18:48:48.397Z,66.86
2022-12-28T18:51:17.932Z,66.83
2022-12-28T18:53:45.783Z,66.76
2022-12-28T18:56:20.138Z,66.77
2022-12-28T18:58:55.764Z,66.97
2022-12-28T19:04:00.126Z,67.11
2022-12-28T19:06:28.781Z,67.15
2022-12-28T19:09:00.474Z,67.16
2022-12-28T19:11:28.931Z,67.21
2022-12-28T19:13:57.336Z,67.16
2022-12-28T19:16:31.010Z,67.02
2022-12-28T19:18:54.558Z,66.84
2022-12-28T19:21:40.272Z,66.75
2022-12-28T19:24:18.476Z,67.00
2022-12-28T19:26:47.377Z,67.11
2022-12-28T19:29:15.985Z,67.05
2022-12-28T19:31:44.214Z,67.08
2022-12-28T19:34:12.465Z,67.14
2022-12-28T19:36:40.307Z,67.28
2022-12-28T19:39:07.741Z,67.21
2022-12-28T19:41:35.343Z,67.17
2022-12-28T19:44:03.069Z,66.93
2022-12-28T19:46:31.137Z,66.94
2022-12-28T19:49:01.741Z,67.01
2022-12-28T19:51:32.148Z,67.07
2022-12-28T19:54:01.169Z,67.02
2022-12-28T19:56:30.858Z,67.04
2022-12-28T19:59:05.390Z,67.08
2022-12-28T20:01:28.688Z,67.07
2022-12-28T20:03:56.781Z,66.96
2022-12-28T20:06:28.311Z,66.96
2022-12-28T20:08:59.290Z,67.07
2022-12-28T20:11:28.419Z,67.17
2022-12-28T20:14:02.161Z,67.25
2022-12-28T20:16:32.483Z,67.33
2022-12-28T20:19:01.107Z,67.39
2022-12-28T20:21:28.585Z,67.38
2022-12-28T20:23:56.258Z,67.49
2022-12-28T20:26:26.291Z,67.54
2022-12-28T20:28:54.163Z,67.54
2022-12-28T20:31:22.105Z,67.53
2022-12-28T20:33:50.276Z,67.49
2022-12-28T20:36:24.812Z,67.43
2022-12-28T20:38:55.032Z,67.40
2022-12-28T20:41:44.964Z,67.47
2022-12-28T20:44:17.322Z,67.33
2022-12-28T20:46:45.955Z,67.27
2022-12-28T20:49:13.447Z,67.26
2022-12-28T20:51:41.865Z,67.37
2022-12-28T20:54:10.746Z,67.41
2022-12-28T20:56:41.306Z,67.42
2022-12-28T20:59:11.060Z,67.30
2022-12-28T21:01:39.874Z,67.21
2022-12-28T21:04:08.594Z,67.08
2022-12-28T21:06:36.237Z,67.08
2022-12-28T21:09:05.093Z,67.17
2022-12-28T21:11:32.883Z,67.22
2022-12-28T21:14:00.526Z,67.15
2022-12-28T21:16:28.211Z,67.08
2022-12-28T21:18:55.959Z,67.09
2022-12-28T21:21:23.889Z,67.12
2022-12-28T21:23:54.244Z,67.19
2022-12-28T21:26:22.564Z,67.30
2022-12-28T21:28:50.905Z,67.38
2022-12-28T21:31:18.332Z,67.30
2022-12-28T21:33:46.006Z,67.06
2022-12-28T21:36:17.187Z,66.90
2022-12-28T21:38:46.788Z,67.03
2022-12-28T21:41:37.134Z,67.12
2022-12-28T21:44:11.195Z,67.30
2022-12-28T21:46:39.266Z,67.40
2022-12-28T21:49:07.561Z,67.44
2022-12-28T21:51:35.605Z,67.30
2022-12-28T21:54:16.713Z,67.42
2022-12-28T21:56:48.581Z,67.52
2022-12-28T21:59:16.016Z,67.57
2022-12-28T22:02:02.235Z,67.51
2022-12-28T22:04:48.936Z,67.54
2022-12-28T22:07:18.801Z,67.41
2022-12-28T22:10:05.575Z,67.19
2022-12-28T22:12:34.022Z,67.28
2022-12-28T22:15:33.815Z,67.28
2022-12-28T22:18:08.701Z,67.23
2022-12-28T22:20:37.773Z,67.07
2022-12-28T22:23:06.509Z,67.25
2022-12-28T22:25:36.279Z,67.31
2022-12-28T22:28:05.097Z,67.29
2022-12-28T22:30:35.559Z,67.17
2022-12-28T22:33:03.732Z,67.40
2022-12-28T22:35:32.134Z,67.46
2022-12-28T22:38:00.441Z,67.57
2022-12-28T22:40:28.748Z,67.44
2022-12-28T22:42:56.401Z,67.42
2022-12-28T22:45:24.398Z,67.43
2022-12-28T22:47:53.734Z,67.43
2022-12-28T22:50:21.430Z,67.56
2022-12-28T22:52:49.137Z,67.52
2022-12-28T22:55:16.982Z,67.47
2022-12-28T22:57:44.715Z,67.56
2022-12-28T23:00:14.555Z,67.52
2022-12-28T23:02:42.423Z,67.49
2022-12-28T23:05:10.589Z,67.25
2022-12-28T23:07:38.982Z,67.20
2022-12-28T23:10:09.627Z,67.21
2022-12-28T23:12:37.633Z,67.23
2022-12-28T23:15:17.733Z,67.26
2022-12-28T23:17:47.727Z,67.20
2022-12-28T23:20:36.504Z,67.22
2022-12-28T23:23:22.647Z,67.39
2022-12-28T23:26:08.978Z,67.31
2022-12-28T23:28:36.670Z,67.29
2022-12-28T23:31:04.835Z,67.36
2022-12-28T23:33:32.268Z,67.38
2022-12-28T23:36:04.393Z,67.36
2022-12-28T23:38:32.853Z,67.25
2022-12-28T23:41:24.560Z,67.25
2022-12-28T23:43:52.128Z,67.17
2022-12-28T23:46:19.747Z,67.09
2022-12-28T23:48:47.493Z,67.10
2022-12-28T23:51:16.569Z,67.17
2022-12-28T23:53:44.361Z,67.07
2022-12-28T23:56:11.897Z,66.94
2022-12-28T23:58:39.773Z,66.90
